sensor_id;sensor_type;location;lat;lon;timestamp;pressure;altitude;pressure_sealevel;temperature;humidity
39769;BME280;38939;47.824;14.642;2023-02-20T00:00:31;97677.31;;;8.43;77.25
39769;BME280;38939;47.824;14.642;2023-02-20T00:01:33;97662.69;;;8.42;76.85
39769;BME280;38939;47.824;14.642;2023-02-20T00:02:35;97672.75;;;8.45;76.84
39769;BME280;38939;47.824;14.642;2023-02-20T00:03:37;97686.56;;;8.46;77.12
39769;BME280;38939;47.824;14.642;2023-02-20T00:04:39;97691.91;;;8.44;76.96
39769;BME280;38939;47.824;14.642;2023-02-20T00:05:41;97690.59;;;8.40;75.97
39769;BME280;38939;47.824;14.642;2023-02-20T00:06:43;97697.31;;;8.43;75.64
39769;BME280;38939;47.824;14.642;2023-02-20T00:07:45;97670.47;;;8.42;74.34
39769;BME280;38939;47.824;14.642;2023-02-20T00:08:46;97669.50;;;8.43;73.79
39769;BME280;38939;47.824;14.642;2023-02-20T00:09:48;97672.88;;;8.52;68.58
39769;BME280;38939;47.824;14.642;2023-02-20T00:10:50;97677.41;;;8.58;69.05
39769;BME280;38939;47.824;14.642;2023-02-20T00:11:52;97682.28;;;8.61;70.72
39769;BME280;38939;47.824;14.642;2023-02-20T00:12:54;97684.72;;;8.63;71.69
39769;BME280;38939;47.824;14.642;2023-02-20T00:13:56;97682.13;;;8.63;73.04
39769;BME280;38939;47.824;14.642;2023-02-20T00:14:58;97661.63;;;8.59;73.57
39769;BME280;38939;47.824;14.642;2023-02-20T00:16:00;97666.19;;;8.57;72.84
39769;BME280;38939;47.824;14.642;2023-02-20T00:17:02;97658.41;;;8.57;71.77
39769;BME280;38939;47.824;14.642;2023-02-20T00:18:04;97655.78;;;8.57;71.85
39769;BME280;38939;47.824;14.642;2023-02-20T00:19:07;97667.00;;;8.58;72.49
39769;BME280;38939;47.824;14.642;2023-02-20T00:20:09;97684.41;;;8.57;72.32
39769;BME280;38939;47.824;14.642;2023-02-20T00:21:11;97682.59;;;8.58;71.04
39769;BME280;38939;47.824;14.642;2023-02-20T00:22:13;97688.28;;;8.61;69.03
39769;BME280;38939;47.824;14.642;2023-02-20T00:23:16;97695.56;;;8.66;68.37
39769;BME280;38939;47.824;14.642;2023-02-20T00:24:18;97675.41;;;8.68;69.63
39769;BME280;38939;47.824;14.642;2023-02-20T00:25:20;97661.59;;;8.68;68.77
39769;BME280;38939;47.824;14.642;2023-02-20T00:26:22;97652.81;;;8.69;70.28
39769;BME280;38939;47.824;14.642;2023-02-20T00:27:24;97646.63;;;8.70;70.34
39769;BME280;38939;47.824;14.642;2023-02-20T00:28:26;97650.84;;;8.71;69.75
39769;BME280;38939;47.824;14.642;2023-02-20T00:29:27;97658.66;;;8.71;69.93
39769;BME280;38939;47.824;14.642;2023-02-20T00:30:29;97657.66;;;8.72;69.68
39769;BME280;38939;47.824;14.642;2023-02-20T00:31:31;97660.09;;;8.73;70.60
39769;BME280;38939;47.824;14.642;2023-02-20T00:32:33;97660.91;;;8.74;70.79
39769;BME280;38939;47.824;14.642;2023-02-20T00:33:35;97677.00;;;8.77;71.31
39769;BME280;38939;47.824;14.642;2023-02-20T00:34:37;97667.38;;;8.78;71.18
39769;BME280;38939;47.824;14.642;2023-02-20T00:35:39;97652.94;;;8.75;71.42
39769;BME280;38939;47.824;14.642;2023-02-20T00:36:41;97657.34;;;8.75;71.25
39769;BME280;38939;47.824;14.642;2023-02-20T00:37:44;97653.91;;;8.74;71.62
39769;BME280;38939;47.824;14.642;2023-02-20T00:38:46;97646.94;;;8.75;71.11
39769;BME280;38939;47.824;14.642;2023-02-20T00:39:48;97649.53;;;8.75;71.63
39769;BME280;38939;47.824;14.642;2023-02-20T00:40:50;97656.50;;;8.74;70.70
39769;BME280;38939;47.824;14.642;2023-02-20T00:41:52;97657.16;;;8.76;71.37
39769;BME280;38939;47.824;14.642;2023-02-20T00:42:54;97639.75;;;8.77;71.56
39769;BME280;38939;47.824;14.642;2023-02-20T00:43:56;97629.34;;;8.77;71.95
39769;BME280;38939;47.824;14.642;2023-02-20T00:44:57;97632.94;;;8.76;72.72
39769;BME280;38939;47.824;14.642;2023-02-20T00:45:59;97635.25;;;8.71;72.21
39769;BME280;38939;47.824;14.642;2023-02-20T00:47:01;97644.81;;;8.70;73.07
39769;BME280;38939;47.824;14.642;2023-02-20T00:48:03;97646.78;;;8.68;72.31
39769;BME280;38939;47.824;14.642;2023-02-20T00:49:05;97643.75;;;8.65;72.82
39769;BME280;38939;47.824;14.642;2023-02-20T00:50:09;97651.53;;;8.65;73.48
39769;BME280;38939;47.824;14.642;2023-02-20T00:51:11;97637.38;;;8.67;73.64
39769;BME280;38939;47.824;14.642;2023-02-20T00:52:13;97635.56;;;8.68;73.91
39769;BME280;38939;47.824;14.642;2023-02-20T00:53:15;97637.00;;;8.70;74.00
39769;BME280;38939;47.824;14.642;2023-02-20T00:54:17;97637.66;;;8.72;73.88
39769;BME280;38939;47.824;14.642;2023-02-20T00:55:19;97644.03;;;8.70;74.25
39769;BME280;38939;47.824;14.642;2023-02-20T00:56:21;97642.41;;;8.69;74.70
39769;BME280;38939;47.824;14.642;2023-02-20T00:57:23;97637.22;;;8.69;74.48
39769;BME280;38939;47.824;14.642;2023-02-20T00:58:25;97650.38;;;8.67;74.01
39769;BME280;38939;47.824;14.642;2023-02-20T00:59:27;97653.78;;;8.68;74.43
39769;BME280;38939;47.824;14.642;2023-02-20T01:00:28;97647.78;;;8.67;73.67
39769;BME280;38939;47.824;14.642;2023-02-20T01:01:31;97642.09;;;8.64;73.09
39769;BME280;38939;47.824;14.642;2023-02-20T01:02:32;97639.84;;;8.60;73.52
39769;BME280;38939;47.824;14.642;2023-02-20T01:03:34;97638.22;;;8.59;73.68
39769;BME280;38939;47.824;14.642;2023-02-20T01:04:37;97638.88;;;8.61;73.54
39769;BME280;38939;47.824;14.642;2023-02-20T01:05:39;97650.72;;;8.64;73.51
39769;BME280;38939;47.824;14.642;2023-02-20T01:06:40;97656.56;;;8.66;73.41
39769;BME280;38939;47.824;14.642;2023-02-20T01:07:42;97660.63;;;8.69;73.80
39769;BME280;38939;47.824;14.642;2023-02-20T01:08:44;97655.44;;;8.69;73.76
39769;BME280;38939;47.824;14.642;2023-02-20T01:09:46;97652.81;;;8.69;74.12
39769;BME280;38939;47.824;14.642;2023-02-20T01:10:48;97648.94;;;8.65;73.08
39769;BME280;38939;47.824;14.642;2023-02-20T01:11:50;97662.91;;;8.64;72.93
39769;BME280;38939;47.824;14.642;2023-02-20T01:12:52;97654.94;;;8.65;73.51
39769;BME280;38939;47.824;14.642;2023-02-20T01:13:54;97647.94;;;8.66;73.68
39769;BME280;38939;47.824;14.642;2023-02-20T01:14:56;97649.91;;;8.64;73.85
39769;BME280;38939;47.824;14.642;2023-02-20T01:15:58;97655.47;;;8.60;73.97
39769;BME280;38939;47.824;14.642;2023-02-20T01:17:00;97654.63;;;8.60;72.82
39769;BME280;38939;47.824;14.642;2023-02-20T01:18:02;97648.34;;;8.54;72.88
39769;BME280;38939;47.824;14.642;2023-02-20T01:19:06;97651.91;;;8.53;73.53
39769;BME280;38939;47.824;14.642;2023-02-20T01:20:09;97661.34;;;8.54;73.63
39769;BME280;38939;47.824;14.642;2023-02-20T01:21:10;97669.78;;;8.56;73.90
39769;BME280;38939;47.824;14.642;2023-02-20T01:22:12;97659.19;;;8.58;74.24
39769;BME280;38939;47.824;14.642;2023-02-20T01:23:14;97648.47;;;8.61;74.50
39769;BME280;38939;47.824;14.642;2023-02-20T01:24:16;97654.81;;;8.58;74.28
39769;BME280;38939;47.824;14.642;2023-02-20T01:25:18;97647.34;;;8.55;73.77
39769;BME280;38939;47.824;14.642;2023-02-20T01:26:20;97654.34;;;8.55;74.86
39769;BME280;38939;47.824;14.642;2023-02-20T01:27:22;97648.50;;;8.53;75.00
39769;BME280;38939;47.824;14.642;2023-02-20T01:28:24;97644.09;;;8.53;75.09
39769;BME280;38939;47.824;14.642;2023-02-20T01:29:26;97632.53;;;8.56;75.27
39769;BME280;38939;47.824;14.642;2023-02-20T01:30:28;97647.03;;;8.58;74.78
39769;BME280;38939;47.824;14.642;2023-02-20T01:31:30;97649.63;;;8.58;73.66
39769;BME280;38939;47.824;14.642;2023-02-20T01:32:32;97672.19;;;8.58;73.50
39769;BME280;38939;47.824;14.642;2023-02-20T01:33:34;97674.16;;;8.56;73.78
39769;BME280;38939;47.824;14.642;2023-02-20T01:34:36;97666.72;;;8.53;72.22
39769;BME280;38939;47.824;14.642;2023-02-20T01:35:38;97657.13;;;8.53;72.41
39769;BME280;38939;47.824;14.642;2023-02-20T01:36:44;97636.94;;;8.55;73.02
39769;BME280;38939;47.824;14.642;2023-02-20T01:37:46;97645.22;;;8.59;73.43
39769;BME280;38939;47.824;14.642;2023-02-20T01:38:48;97641.47;;;8.61;73.40
39769;BME280;38939;47.824;14.642;2023-02-20T01:39:51;97649.91;;;8.64;73.92
39769;BME280;38939;47.824;14.642;2023-02-20T01:40:53;97651.53;;;8.65;73.99
39769;BME280;38939;47.824;14.642;2023-02-20T01:42:01;97659.16;;;8.66;73.50
39769;BME280;38939;47.824;14.642;2023-02-20T01:43:03;97652.97;;;8.67;74.26
39769;BME280;38939;47.824;14.642;2023-02-20T01:44:08;97645.19;;;8.67;73.77
39769;BME280;38939;47.824;14.642;2023-02-20T01:45:15;97639.97;;;8.67;72.88
39769;BME280;38939;47.824;14.642;2023-02-20T01:47:26;97637.53;;;8.66;72.60
39769;BME280;38939;47.824;14.642;2023-02-20T01:48:28;97628.75;;;8.67;72.56
39769;BME280;38939;47.824;14.642;2023-02-20T01:49:43;97626.50;;;8.64;71.69
39769;BME280;38939;47.824;14.642;2023-02-20T01:50:46;97632.69;;;8.63;72.70
39769;BME280;38939;47.824;14.642;2023-02-20T01:51:50;97633.50;;;8.63;71.75
39769;BME280;38939;47.824;14.642;2023-02-20T01:52:55;97630.72;;;8.65;72.49
39769;BME280;38939;47.824;14.642;2023-02-20T01:53:59;97635.75;;;8.66;72.21
39769;BME280;38939;47.824;14.642;2023-02-20T01:55:08;97639.81;;;8.69;72.76
39769;BME280;38939;47.824;14.642;2023-02-20T01:56:11;97635.56;;;8.68;73.11
39769;BME280;38939;47.824;14.642;2023-02-20T01:57:16;97633.50;;;8.63;72.96
39769;BME280;38939;47.824;14.642;2023-02-20T01:58:39;97637.59;;;8.57;71.91
39769;BME280;38939;47.824;14.642;2023-02-20T01:59:42;97636.63;;;8.58;71.69
39769;BME280;38939;47.824;14.642;2023-02-20T02:00:44;97631.41;;;8.58;71.64
39769;BME280;38939;47.824;14.642;2023-02-20T02:01:46;97626.03;;;8.60;71.89
39769;BME280;38939;47.824;14.642;2023-02-20T02:03:03;97624.25;;;8.60;71.85
39769;BME280;38939;47.824;14.642;2023-02-20T02:04:06;97628.28;;;8.63;71.32
39769;BME280;38939;47.824;14.642;2023-02-20T02:05:09;97622.28;;;8.63;72.30
39769;BME280;38939;47.824;14.642;2023-02-20T02:06:12;97619.31;;;8.66;72.20
39769;BME280;38939;47.824;14.642;2023-02-20T02:07:15;97622.56;;;8.68;72.42
39769;BME280;38939;47.824;14.642;2023-02-20T02:08:17;97629.22;;;8.70;72.22
39769;BME280;38939;47.824;14.642;2023-02-20T02:09:23;97632.66;;;8.71;71.86
39769;BME280;38939;47.824;14.642;2023-02-20T02:10:31;97640.25;;;8.72;72.00
39769;BME280;38939;47.824;14.642;2023-02-20T02:11:36;97636.84;;;8.72;71.86
39769;BME280;38939;47.824;14.642;2023-02-20T02:12:39;97634.88;;;8.74;72.12
39769;BME280;38939;47.824;14.642;2023-02-20T02:13:42;97636.06;;;8.71;72.14
39769;BME280;38939;47.824;14.642;2023-02-20T02:14:45;97642.41;;;8.69;72.48
39769;BME280;38939;47.824;14.642;2023-02-20T02:15:49;97639.63;;;8.70;72.98
39769;BME280;38939;47.824;14.642;2023-02-20T02:34:44;97632.16;;;8.67;73.11
39769;BME280;38939;47.824;14.642;2023-02-20T02:37:17;97631.19;;;8.68;72.86
39769;BME280;38939;47.824;14.642;2023-02-20T02:39:28;97649.38;;;8.68;72.04
39769;BME280;38939;47.824;14.642;2023-02-20T02:41:45;97626.16;;;8.67;72.68
39769;BME280;38939;47.824;14.642;2023-02-20T02:45:08;97633.34;;;8.65;72.04
39769;BME280;38939;47.824;14.642;2023-02-20T02:46:20;97640.94;;;8.66;72.01
39769;BME280;38939;47.824;14.642;2023-02-20T02:47:34;97643.53;;;8.66;72.40
39769;BME280;38939;47.824;14.642;2023-02-20T02:48:44;97641.94;;;8.65;71.47
39769;BME280;38939;47.824;14.642;2023-02-20T02:49:50;97637.38;;;8.67;71.57
39769;BME280;38939;47.824;14.642;2023-02-20T02:50:56;97634.94;;;8.66;70.31
39769;BME280;38939;47.824;14.642;2023-02-20T02:51:59;97645.34;;;8.66;71.43
39769;BME280;38939;47.824;14.642;2023-02-20T02:53:02;97654.94;;;8.65;71.38
39769;BME280;38939;47.824;14.642;2023-02-20T02:54:09;97651.53;;;8.65;71.66
39769;BME280;38939;47.824;14.642;2023-02-20T02:55:12;97658.34;;;8.66;71.08
39769;BME280;38939;47.824;14.642;2023-02-20T02:56:14;97646.16;;;8.66;71.72
39769;BME280;38939;47.824;14.642;2023-02-20T02:57:23;97663.56;;;8.66;71.14
39769;BME280;38939;47.824;14.642;2023-02-20T02:58:26;97660.94;;;8.66;70.81
39769;BME280;38939;47.824;14.642;2023-02-20T02:59:29;97663.38;;;8.67;70.70
39769;BME280;38939;47.824;14.642;2023-02-20T03:00:43;97666.00;;;8.67;71.37
39769;BME280;38939;47.824;14.642;2023-02-20T03:01:51;97668.44;;;8.69;71.74
39769;BME280;38939;47.824;14.642;2023-02-20T03:03:00;97677.69;;;8.71;71.63
39769;BME280;38939;47.824;14.642;2023-02-20T03:04:06;97676.88;;;8.71;71.74
39769;BME280;38939;47.824;14.642;2023-02-20T03:05:11;97695.09;;;8.71;72.25
39769;BME280;38939;47.824;14.642;2023-02-20T03:06:20;97685.66;;;8.70;71.63
39769;BME280;38939;47.824;14.642;2023-02-20T03:07:25;97694.25;;;8.70;71.05
39769;BME280;38939;47.824;14.642;2023-02-20T03:08:29;97674.06;;;8.72;70.98
39769;BME280;38939;47.824;14.642;2023-02-20T03:09:35;97675.06;;;8.71;70.98
39769;BME280;38939;47.824;14.642;2023-02-20T03:10:41;97679.47;;;8.71;70.01
39769;BME280;38939;47.824;14.642;2023-02-20T03:11:44;97660.28;;;8.72;70.59
39769;BME280;38939;47.824;14.642;2023-02-20T03:12:48;97649.69;;;8.73;70.54
39769;BME280;38939;47.824;14.642;2023-02-20T03:15:21;97650.50;;;8.74;70.49
39769;BME280;38939;47.824;14.642;2023-02-20T03:17:12;97652.13;;;8.75;69.97
39769;BME280;38939;47.824;14.642;2023-02-20T03:18:49;97657.66;;;8.72;70.23
39769;BME280;38939;47.824;14.642;2023-02-20T03:19:32;97649.22;;;8.70;70.22
39769;BME280;38939;47.824;14.642;2023-02-20T03:20:38;97636.56;;;8.67;70.79
39769;BME280;38939;47.824;14.642;2023-02-20T03:21:42;97632.34;;;8.66;70.47
39769;BME280;38939;47.824;14.642;2023-02-20T03:22:57;97645.69;;;8.63;70.14
39769;BME280;38939;47.824;14.642;2023-02-20T03:24:00;97628.81;;;8.58;69.62
39769;BME280;38939;47.824;14.642;2023-02-20T03:25:08;97634.81;;;8.59;68.02
39769;BME280;38939;47.824;14.642;2023-02-20T03:26:16;97631.84;;;8.62;67.64
39769;BME280;38939;47.824;14.642;2023-02-20T03:27:21;97634.13;;;8.65;66.91
39769;BME280;38939;47.824;14.642;2023-02-20T03:28:27;97637.53;;;8.66;66.76
39769;BME280;38939;47.824;14.642;2023-02-20T03:29:33;97632.34;;;8.66;67.44
39769;BME280;38939;47.824;14.642;2023-02-20T03:30:39;97628.41;;;8.70;68.15
39769;BME280;38939;47.824;14.642;2023-02-20T03:31:49;97638.66;;;8.71;68.92
39769;BME280;38939;47.824;14.642;2023-02-20T03:34:30;97636.84;;;8.72;67.30
39769;BME280;38939;47.824;14.642;2023-02-20T03:35:51;97626.81;;;8.69;67.68
39769;BME280;38939;47.824;14.642;2023-02-20T03:37:18;97636.75;;;8.65;68.31
39769;BME280;38939;47.824;14.642;2023-02-20T03:38:39;97632.50;;;8.64;68.98
39769;BME280;38939;47.824;14.642;2023-02-20T03:40:03;97640.50;;;8.63;68.58
39769;BME280;38939;47.824;14.642;2023-02-20T03:41:24;97637.69;;;8.64;69.55
39769;BME280;38939;47.824;14.642;2023-02-20T03:42:47;97645.97;;;8.68;69.78
39769;BME280;38939;47.824;14.642;2023-02-20T03:44:08;97632.00;;;8.69;69.45
39769;BME280;38939;47.824;14.642;2023-02-20T03:45:11;97644.19;;;8.68;68.45
39769;BME280;38939;47.824;14.642;2023-02-20T03:46:16;97643.38;;;8.68;68.36
39769;BME280;38939;47.824;14.642;2023-02-20T03:47:21;97659.63;;;8.70;69.17
39769;BME280;38939;47.824;14.642;2023-02-20T03:48:41;97663.88;;;8.71;69.63
39769;BME280;38939;47.824;14.642;2023-02-20T03:49:44;97658.47;;;8.72;70.11
39769;BME280;38939;47.824;14.642;2023-02-20T03:50:46;97652.13;;;8.75;70.31
39769;BME280;38939;47.824;14.642;2023-02-20T03:51:48;97647.91;;;8.74;70.18
39769;BME280;38939;47.824;14.642;2023-02-20T03:52:50;97651.50;;;8.73;70.42
39769;BME280;38939;47.824;14.642;2023-02-20T03:53:52;97665.81;;;8.69;70.15
39769;BME280;38939;47.824;14.642;2023-02-20T03:54:55;97675.13;;;8.63;70.34
39769;BME280;38939;47.824;14.642;2023-02-20T03:55:57;97677.72;;;8.63;69.75
39769;BME280;38939;47.824;14.642;2023-02-20T03:57:02;97659.50;;;8.63;69.85
39769;BME280;38939;47.824;14.642;2023-02-20T03:58:07;97657.72;;;8.64;69.00
39769;BME280;38939;47.824;14.642;2023-02-20T03:59:14;97657.38;;;8.67;69.10
39769;BME280;38939;47.824;14.642;2023-02-20T04:00:17;97651.81;;;8.70;69.14
39769;BME280;38939;47.824;14.642;2023-02-20T04:01:21;97652.47;;;8.72;69.10
39769;BME280;38939;47.824;14.642;2023-02-20T04:02:28;97650.84;;;8.71;68.11
39769;BME280;38939;47.824;14.642;2023-02-20T04:03:33;97663.22;;;8.69;66.16
39769;BME280;38939;47.824;14.642;2023-02-20T04:04:41;97679.47;;;8.71;64.85
39769;BME280;38939;47.824;14.642;2023-02-20T04:05:46;97665.63;;;8.70;66.06
39769;BME280;38939;47.824;14.642;2023-02-20T04:06:49;97651.19;;;8.68;64.90
39769;BME280;38939;47.824;14.642;2023-02-20T04:08:56;97670.03;;;8.70;67.28
39769;BME280;38939;47.824;14.642;2023-02-20T04:09:59;97695.09;;;8.71;67.31
39769;BME280;38939;47.824;14.642;2023-02-20T04:12:23;97699.47;;;8.70;67.62
39769;BME280;38939;47.824;14.642;2023-02-20T04:13:26;97683.22;;;8.68;68.34
39769;BME280;38939;47.824;14.642;2023-02-20T04:14:29;97681.94;;;8.64;68.02
39769;BME280;38939;47.824;14.642;2023-02-20T04:15:32;97677.88;;;8.61;67.88
39769;BME280;38939;47.824;14.642;2023-02-20T04:16:34;97674.47;;;8.61;67.00
39769;BME280;38939;47.824;14.642;2023-02-20T04:17:39;97672.69;;;8.61;66.16
39769;BME280;38939;47.824;14.642;2023-02-20T04:18:42;97670.72;;;8.64;66.89
39769;BME280;38939;47.824;14.642;2023-02-20T04:19:44;97683.56;;;8.65;67.93
39769;BME280;38939;47.824;14.642;2023-02-20T04:20:47;97680.81;;;8.67;66.82
39769;BME280;38939;47.824;14.642;2023-02-20T04:21:51;97675.25;;;8.70;67.16
39769;BME280;38939;47.824;14.642;2023-02-20T04:22:55;97656.06;;;8.71;65.38
39769;BME280;38939;47.824;14.642;2023-02-20T04:24:04;97667.28;;;8.71;65.90
39769;BME280;38939;47.824;14.642;2023-02-20T04:26:16;97668.88;;;8.72;64.62
39769;BME280;38939;47.824;14.642;2023-02-20T04:27:19;97676.50;;;8.74;65.93
39769;BME280;38939;47.824;14.642;2023-02-20T04:28:21;97663.66;;;8.72;66.37
39769;BME280;38939;47.824;14.642;2023-02-20T04:29:24;97665.81;;;8.69;67.13
39769;BME280;38939;47.824;14.642;2023-02-20T04:30:26;97680.97;;;8.65;64.34
39769;BME280;38939;47.824;14.642;2023-02-20T04:31:29;97666.97;;;8.66;65.97
39769;BME280;38939;47.824;14.642;2023-02-20T04:32:32;97675.59;;;8.67;66.92
39769;BME280;38939;47.824;14.642;2023-02-20T04:33:33;97677.03;;;8.69;67.31
39769;BME280;38939;47.824;14.642;2023-02-20T04:34:35;97663.22;;;8.69;66.32
39769;BME280;38939;47.824;14.642;2023-02-20T04:35:38;97663.03;;;8.70;66.84
39769;BME280;38939;47.824;14.642;2023-02-20T04:36:40;97679.97;;;8.66;65.44
39769;BME280;38939;47.824;14.642;2023-02-20T04:37:42;97685.81;;;8.68;65.50
39769;BME280;38939;47.824;14.642;2023-02-20T04:38:44;97679.47;;;8.71;65.26
39769;BME280;38939;47.824;14.642;2023-02-20T04:39:46;97664.84;;;8.70;65.54
39769;BME280;38939;47.824;14.642;2023-02-20T04:40:48;97672.63;;;8.70;65.62
39769;BME280;38939;47.824;14.642;2023-02-20T04:41:51;97666.47;;;8.71;66.21
39769;BME280;38939;47.824;14.642;2023-02-20T04:42:53;97674.91;;;8.73;66.78
39769;BME280;38939;47.824;14.642;2023-02-20T04:43:55;97677.69;;;8.71;66.17
39769;BME280;38939;47.824;14.642;2023-02-20T04:45:16;97680.28;;;8.71;66.38
39769;BME280;38939;47.824;14.642;2023-02-20T04:46:18;97669.72;;;8.73;66.47
39769;BME280;38939;47.824;14.642;2023-02-20T04:47:20;97674.91;;;8.73;66.79
39769;BME280;38939;47.824;14.642;2023-02-20T04:48:22;97668.44;;;8.69;67.14
39769;BME280;38939;47.824;14.642;2023-02-20T04:49:24;97668.44;;;8.69;67.52
39769;BME280;38939;47.824;14.642;2023-02-20T04:50:27;97649.84;;;8.72;67.62
39769;BME280;38939;47.824;14.642;2023-02-20T04:51:29;97650.03;;;8.70;65.84
39769;BME280;38939;47.824;14.642;2023-02-20T04:52:31;97664.03;;;8.69;65.12
39769;BME280;38939;47.824;14.642;2023-02-20T04:53:33;97663.56;;;8.66;64.66
39769;BME280;38939;47.824;14.642;2023-02-20T04:54:35;97660.16;;;8.65;65.32
39769;BME280;38939;47.824;14.642;2023-02-20T04:55:37;97657.53;;;8.65;66.51
39769;BME280;38939;47.824;14.642;2023-02-20T04:56:39;97643.75;;;8.65;64.98
39769;BME280;38939;47.824;14.642;2023-02-20T04:57:41;97645.34;;;8.66;64.54
39769;BME280;38939;47.824;14.642;2023-02-20T04:58:45;97644.38;;;8.67;63.30
39769;BME280;38939;47.824;14.642;2023-02-20T04:59:47;97643.53;;;8.66;64.54
39769;BME280;38939;47.824;14.642;2023-02-20T05:00:49;97645.19;;;8.67;64.43
39769;BME280;38939;47.824;14.642;2023-02-20T05:01:51;97663.22;;;8.69;64.84
39769;BME280;38939;47.824;14.642;2023-02-20T05:02:56;97665.63;;;8.70;64.16
39769;BME280;38939;47.824;14.642;2023-02-20T05:03:58;97658.47;;;8.72;65.17
39769;BME280;38939;47.824;14.642;2023-02-20T05:05:00;97656.69;;;8.73;66.01
39769;BME280;38939;47.824;14.642;2023-02-20T05:06:01;97652.63;;;8.70;65.64
39769;BME280;38939;47.824;14.642;2023-02-20T05:07:03;97662.88;;;8.72;65.36
39769;BME280;38939;47.824;14.642;2023-02-20T05:08:06;97653.09;;;8.74;65.84
39769;BME280;38939;47.824;14.642;2023-02-20T05:09:08;97645.13;;;8.75;66.45
39769;BME280;38939;47.824;14.642;2023-02-20T05:10:12;97642.38;;;8.77;66.71
39769;BME280;38939;47.824;14.642;2023-02-20T05:11:15;97639.13;;;8.75;66.72
39769;BME280;38939;47.824;14.642;2023-02-20T05:12:17;97635.25;;;8.71;65.35
39769;BME280;38939;47.824;14.642;2023-02-20T05:13:19;97635.25;;;8.71;64.77
39769;BME280;38939;47.824;14.642;2023-02-20T05:14:21;97625.97;;;8.68;65.08
39769;BME280;38939;47.824;14.642;2023-02-20T05:15:23;97649.38;;;8.68;63.47
39769;BME280;38939;47.824;14.642;2023-02-20T05:16:25;97664.50;;;8.73;63.48
39769;BME280;38939;47.824;14.642;2023-02-20T05:17:27;97657.66;;;8.72;63.07
39769;BME280;38939;47.824;14.642;2023-02-20T05:18:29;97676.88;;;8.71;63.72
39769;BME280;38939;47.824;14.642;2023-02-20T05:19:31;97670.84;;;8.70;63.89
39769;BME280;38939;47.824;14.642;2023-02-20T05:20:33;97671.84;;;8.69;62.82
39769;BME280;38939;47.824;14.642;2023-02-20T05:21:55;97668.72;;;8.74;61.86
39769;BME280;38939;47.824;14.642;2023-02-20T05:23:16;97673.59;;;8.77;61.62
39769;BME280;38939;47.824;14.642;2023-02-20T05:24:18;97668.19;;;8.78;63.49
39769;BME280;38939;47.824;14.642;2023-02-20T05:25:20;97661.53;;;8.76;62.79
39769;BME280;38939;47.824;14.642;2023-02-20T05:26:22;97659.75;;;8.76;63.66
39769;BME280;38939;47.824;14.642;2023-02-20T05:27:24;97656.50;;;8.74;62.35
39769;BME280;38939;47.824;14.642;2023-02-20T05:28:27;97665.94;;;8.75;62.43
39769;BME280;38939;47.824;14.642;2023-02-20T05:29:29;97662.53;;;8.75;63.10
39769;BME280;38939;47.824;14.642;2023-02-20T05:30:31;97653.25;;;8.72;63.96
39769;BME280;38939;47.824;14.642;2023-02-20T05:31:33;97645.66;;;8.71;63.59
39769;BME280;38939;47.824;14.642;2023-02-20T05:32:35;97660.44;;;8.70;62.84
39769;BME280;38939;47.824;14.642;2023-02-20T05:33:37;97677.50;;;8.73;62.18
39769;BME280;38939;47.824;14.642;2023-02-20T05:34:39;97666.91;;;8.74;62.50
39769;BME280;38939;47.824;14.642;2023-02-20T05:35:40;97660.09;;;8.73;62.36
39769;BME280;38939;47.824;14.642;2023-02-20T05:36:42;97655.53;;;8.75;62.27
39769;BME280;38939;47.824;14.642;2023-02-20T05:37:44;97660.91;;;8.74;62.79
39769;BME280;38939;47.824;14.642;2023-02-20T05:38:46;97656.50;;;8.74;62.41
39769;BME280;38939;47.824;14.642;2023-02-20T05:39:50;97675.56;;;8.75;62.92
39769;BME280;38939;47.824;14.642;2023-02-20T05:40:52;97682.19;;;8.77;63.12
39769;BME280;38939;47.824;14.642;2023-02-20T05:41:54;97676.84;;;8.79;63.45
39769;BME280;38939;47.824;14.642;2023-02-20T05:42:56;97677.78;;;8.78;63.96
39769;BME280;38939;47.824;14.642;2023-02-20T05:43:58;97667.56;;;8.76;62.79
39769;BME280;38939;47.824;14.642;2023-02-20T05:45:00;97649.34;;;8.76;62.27
39769;BME280;38939;47.824;14.642;2023-02-20T05:46:04;97650.97;;;8.77;62.70
39769;BME280;38939;47.824;14.642;2023-02-20T05:47:07;97650.16;;;8.77;62.64
39769;BME280;38939;47.824;14.642;2023-02-20T05:48:12;97651.78;;;8.78;63.18
39769;BME280;38939;47.824;14.642;2023-02-20T05:49:15;97660.59;;;8.77;61.56
39769;BME280;38939;47.824;14.642;2023-02-20T05:50:17;97656.97;;;8.78;61.45
39769;BME280;38939;47.824;14.642;2023-02-20T05:51:21;97650.81;;;8.79;62.64
39769;BME280;38939;47.824;14.642;2023-02-20T05:52:23;97655.00;;;8.80;64.14
39769;BME280;38939;47.824;14.642;2023-02-20T05:53:28;97655.53;;;8.75;63.44
39769;BME280;38939;47.824;14.642;2023-02-20T05:54:30;97666.75;;;8.76;63.79
39769;BME280;38939;47.824;14.642;2023-02-20T05:55:32;97658.31;;;8.74;63.08
39769;BME280;38939;47.824;14.642;2023-02-20T05:56:34;97658.03;;;8.69;63.13
39769;BME280;38939;47.824;14.642;2023-02-20T05:57:36;97665.34;;;8.65;63.59
39769;BME280;38939;47.824;14.642;2023-02-20T05:58:38;97656.75;;;8.65;63.79
39769;BME280;38939;47.824;14.642;2023-02-20T05:59:39;97662.75;;;8.65;62.59
39769;BME280;38939;47.824;14.642;2023-02-20T06:00:41;97651.34;;;8.66;62.36
39769;BME280;38939;47.824;14.642;2023-02-20T06:01:43;97642.41;;;8.69;63.51
39769;BME280;38939;47.824;14.642;2023-02-20T06:02:45;97652.00;;;8.68;63.74
39769;BME280;38939;47.824;14.642;2023-02-20T06:03:47;97666.50;;;8.63;61.72
39769;BME280;38939;47.824;14.642;2023-02-20T06:04:49;97675.13;;;8.63;61.79
39769;BME280;38939;47.824;14.642;2023-02-20T06:05:51;97673.00;;;8.67;60.17
39769;BME280;38939;47.824;14.642;2023-02-20T06:06:57;97656.06;;;8.71;60.71
39769;BME280;38939;47.824;14.642;2023-02-20T06:07:59;97681.88;;;8.72;60.06
39769;BME280;38939;47.824;14.642;2023-02-20T06:09:01;97673.13;;;8.73;60.81
39769;BME280;38939;47.824;14.642;2023-02-20T06:10:03;97661.25;;;8.71;61.14
39769;BME280;38939;47.824;14.642;2023-02-20T06:11:06;97650.03;;;8.70;61.02